Nearby METAR Reports

 

KSJC - San Jose, California, USA
Distance from station: NE 9mi, 14km
Updated: Mon, 08-Feb-2016 4:53pm PST
Clear
Clear
 Wind from calm
Wind: Calm
Temperature: 75°F , 24°C
Dew Point: 43°F , 6°C
Humidity: 31%
Barometer: 30.15 inHg , 1021 hPa
Clouds: Clear
Visibility: 10 miles , 16 km
2016/02/09 00:53 KSJC 090053Z 00000KT 10SM CLR 24/06 A3015 RMK AO2 SLP209 T02440061
KNUQ - Moffett Nas/Mtn, California, USA
Distance from station: N 9mi, 14km
Updated: Mon, 08-Feb-2016 4:56pm PST
Clear
Clear
 Wind from NW
Wind: NW 7 mph , 11 km/h
Temperature: 72°F , 22°C
Dew Point: 46°F , 8°C
Humidity: 41%
Barometer: 30.16 inHg , 1021.3 hPa
Clouds: Clear
Visibility: 10 miles , 16 km
2016/02/09 00:56 KNUQ 090056Z 32006KT 10SM CLR 22/08 A3016 RMK AO2 SLP216 T02170078
 
KPAO - Palo Alto, California, USA
Distance from station: NNW 14mi, 23km
Updated: Mon, 08-Feb-2016 4:47pm PST
Clear
Clear
 Wind from calm
Wind: Calm
Temperature: 77°F , 25°C
Dew Point: 46°F , 8°C
Humidity: 34%
Barometer: 30.16 inHg , 1021.3 hPa
Clouds: Clear
Visibility: 10 miles , 16 km
2016/02/09 00:47 KPAO 090047Z 00000KT 10SM SKC 25/08 A3016
KRHV - San Jose/Reid, California, USA
Distance from station: ENE 12mi, 19km
Updated: Mon, 08-Feb-2016 4:53pm PST
Clear
Clear
 Wind from calm
Wind: Calm
Temperature: 77°F , 25°C
Dew Point: 46°F , 8°C
Humidity: 34%
Barometer: 30.17 inHg , 1021.7 hPa
Clouds: Clear
Visibility: 10 miles , 16 km
2016/02/09 00:53 KRHV 090053Z 00000KT 10SM SKC 25/08 A3017
 
KOAK - Oakland, California, USA
Distance from station: NNW 31mi, 50km
Updated: Mon, 08-Feb-2016 4:53pm PST
Clear
Clear
 Wind from calm
Wind: Calm
Temperature: 68°F , 20°C
Dew Point: 45°F , 7°C
Humidity: 43%
Barometer: 30.16 inHg , 1021.3 hPa
Clouds: Clear
Visibility: 10 miles , 16 km
2016/02/09 00:53 KOAK 090053Z 00000KT 10SM CLR 20/07 A3016 RMK AO2 SLP213 T02000072
KSQL - San Carlos Airpo, California, USA
Distance from station: NW 21mi, 34km
Updated: Mon, 08-Feb-2016 4:55pm PST
Clear
Clear
 Wind from varies
Wind: varies 3 mph , 6 km/h
Temperature: 68°F , 20°C
Dew Point: 50°F , 10°C
Humidity: 53%
Barometer: 30.17 inHg , 1021.7 hPa
Clouds: Clear
Visibility: 10 miles , 16 km
2016/02/09 00:55 KSQL 090055Z VRB03KT 10SM SKC 20/10 A3017
 
KSFO - San Francisco, California, USA
Distance from station: NW 30mi, 49km
Updated: Mon, 08-Feb-2016 4:56pm PST
Clear
Clear
 Wind from E
Wind: E 3 mph , 6 km/h
Temperature: 64°F , 18°C
Dew Point: 46°F , 8°C
Humidity: 52%
Barometer: 30.16 inHg , 1021.3 hPa
Clouds: Clear
Visibility: 10 miles , 16 km
2016/02/09 00:56 KSFO 090056Z 08003KT 10SM CLR 18/08 A3016 RMK AO2 SLP212 T01830078
KE16 - San Martin, California, USA
Distance from station: ESE 27mi, 43km
Updated: Mon, 08-Feb-2016 4:55pm PST
Rain, Clear
Rain, Clear
 Wind from NNW
Wind: NNW 5 mph , 7 km/h
Temperature: 73°F , 23°C
Dew Point: 73°F , 23°C
Humidity: 100%
Barometer: 30.17 inHg , 1021.7 hPa
Summary: Rain
Clouds: Clear
Visibility: 10 miles , 16 km
2016/02/09 00:55 KE16 090055Z AUTO 33004KT 10SM RA CLR 23/23 A3017 RMK AO2 P0022
 
KWVI - Watsonville, California, USA
Distance from station: SSE 27mi, 44km
Updated: Mon, 08-Feb-2016 4:53pm PST
Clear
Clear
 Wind from ESE
Wind: ESE 6 mph , 9 km/h
Temperature: 75°F , 24°C
Dew Point: 54°F , 12°C
Humidity: 47%
Barometer: 30.14 inHg , 1020.7 hPa
Clouds: Clear
Visibility: 10 miles , 16 km
2016/02/09 00:53 KWVI 090053Z AUTO 11005KT 10SM CLR 24/12 A3014 RMK AO2 SLP206 T02390117
KHAF - Half Moon Bay, California, USA
Distance from station: WNW 31mi, 50km
Updated: Mon, 08-Feb-2016 4:55pm PST
Clear
Clear
 Wind from calm
Wind: Calm
Temperature: 73°F , 23°C
Dew Point: 46°F , 8°C
Humidity: 38%
Barometer: 30.15 inHg , 1021 hPa
Clouds: Clear
Visibility: 10 miles , 16 km
2016/02/09 00:55 KHAF 090055Z AUTO 00000KT 10SM CLR 23/08 A3015 RMK AO2
 
KHWD - Hayward, California, USA
Distance from station: N 28mi, 44km
Updated: Mon, 08-Feb-2016 4:54pm PST
Clear
Clear
 Wind from E
Wind: E 9 mph , 15 km/h
Temperature: 73°F , 23°C
Dew Point: 39°F , 4°C
Humidity: 29%
Barometer: 30.15 inHg , 1021 hPa
Clouds: Clear
Visibility: 10 miles , 16 km
2016/02/09 00:54 KHWD 090054Z 08008KT 10SM CLR 23/04 A3015 RMK AO2 SLP219 T02330044
KLVK - Livermore, California, USA
Distance from station: NNE 31mi, 51km
Updated: Mon, 08-Feb-2016 4:53pm PST
Clear
Clear
 Wind from E
Wind: E 6 mph , 9 km/h
Temperature: 66°F , 19°C
Dew Point: 45°F , 7°C
Humidity: 46%
Barometer: 30.18 inHg , 1022 hPa
Clouds: Clear
Visibility: 10 miles , 16 km
2016/02/09 00:53 KLVK 090053Z 08005KT 10SM CLR 19/07 A3018 RMK AO2 SLP217 T01940072 $